sensor_id;sensor_type;location;lat;lon;timestamp;pressure;altitude;pressure_sealevel;temperature;humidity
46710;BME280;32442;51.514;-0.178;2023-04-28T00:00:48;100576.78;;;21.94;45.73
46710;BME280;32442;51.514;-0.178;2023-04-28T00:03:16;100571.16;;;21.94;46.02
46710;BME280;32442;51.514;-0.178;2023-04-28T00:05:46;100572.28;;;21.93;45.82
46710;BME280;32442;51.514;-0.178;2023-04-28T00:08:15;100572.28;;;21.93;46.05
46710;BME280;32442;51.514;-0.178;2023-04-28T00:10:42;100563.00;;;21.92;45.89
46710;BME280;32442;51.514;-0.178;2023-04-28T00:13:09;100564.97;;;21.92;45.88
46710;BME280;32442;51.514;-0.178;2023-04-28T00:15:37;100561.31;;;21.91;45.78
46710;BME280;32442;51.514;-0.178;2023-04-28T00:18:04;100554.88;;;21.91;46.11
46710;BME280;32442;51.514;-0.178;2023-04-28T00:20:31;100552.41;;;21.89;45.95
46710;BME280;32442;51.514;-0.178;2023-04-28T00:22:58;100547.94;;;21.88;46.07
46710;BME280;32442;51.514;-0.178;2023-04-28T00:25:25;100545.94;;;21.89;46.07
46710;BME280;32442;51.514;-0.178;2023-04-28T00:27:52;100528.25;;;21.88;46.07
46710;BME280;32442;51.514;-0.178;2023-04-28T00:30:19;100536.69;;;21.88;46.22
46710;BME280;32442;51.514;-0.178;2023-04-28T00:32:46;100530.53;;;21.86;46.37
46710;BME280;32442;51.514;-0.178;2023-04-28T00:35:13;100528.88;;;21.85;46.10
46710;BME280;32442;51.514;-0.178;2023-04-28T00:37:40;100540.13;;;21.85;46.45
46710;BME280;32442;51.514;-0.178;2023-04-28T00:40:08;100534.50;;;21.85;46.61
46710;BME280;32442;51.514;-0.178;2023-04-28T00:42:35;100530.06;;;21.84;46.38
46710;BME280;32442;51.514;-0.178;2023-04-28T00:45:05;100530.38;;;21.83;46.65
46710;BME280;32442;51.514;-0.178;2023-04-28T00:47:33;100528.72;;;21.82;47.07
46710;BME280;32442;51.514;-0.178;2023-04-28T00:50:00;100531.19;;;21.83;47.07
46710;BME280;32442;51.514;-0.178;2023-04-28T00:52:28;100523.44;;;21.80;47.21
46710;BME280;32442;51.514;-0.178;2023-04-28T00:54:55;100523.75;;;21.79;47.20
46710;BME280;32442;51.514;-0.178;2023-04-28T00:57:23;100519.09;;;21.74;47.15
46710;BME280;32442;51.514;-0.178;2023-04-28T00:59:53;100521.59;;;21.76;47.48
46710;BME280;32442;51.514;-0.178;2023-04-28T01:02:20;100526.53;;;21.70;47.30
46710;BME280;32442;51.514;-0.178;2023-04-28T01:04:47;100517.59;;;21.68;47.55
46710;BME280;32442;51.514;-0.178;2023-04-28T01:07:18;100528.53;;;21.69;47.84
46710;BME280;32442;51.514;-0.178;2023-04-28T01:09:45;100531.16;;;21.66;47.87
46710;BME280;32442;51.514;-0.178;2023-04-28T01:12:13;100522.72;;;21.66;47.50
46710;BME280;32442;51.514;-0.178;2023-04-28T01:14:40;100520.91;;;21.61;47.64
46710;BME280;32442;51.514;-0.178;2023-04-28T01:17:07;100520.38;;;21.59;48.00
46710;BME280;32442;51.514;-0.178;2023-04-28T01:19:35;100526.66;;;21.56;48.00
46710;BME280;32442;51.514;-0.178;2023-04-28T01:22:01;100523.19;;;21.59;48.00
46710;BME280;32442;51.514;-0.178;2023-04-28T01:24:30;100524.00;;;21.51;48.05
46710;BME280;32442;51.514;-0.178;2023-04-28T01:26:57;100516.41;;;21.52;48.29
46710;BME280;32442;51.514;-0.178;2023-04-28T01:29:24;100519.22;;;21.52;48.42
46710;BME280;32442;51.514;-0.178;2023-04-28T01:31:51;100515.41;;;21.48;48.71
46710;BME280;32442;51.514;-0.178;2023-04-28T01:34:18;100520.50;;;21.46;48.48
46710;BME280;32442;51.514;-0.178;2023-04-28T01:36:45;100520.50;;;21.46;48.52
46710;BME280;32442;51.514;-0.178;2023-04-28T01:39:12;100509.56;;;21.44;48.90
46710;BME280;32442;51.514;-0.178;2023-04-28T01:41:42;100510.22;;;21.41;48.72
46710;BME280;32442;51.514;-0.178;2023-04-28T01:44:11;100517.34;;;21.39;48.77
46710;BME280;32442;51.514;-0.178;2023-04-28T01:46:39;100508.41;;;21.37;48.72
46710;BME280;32442;51.514;-0.178;2023-04-28T01:49:06;100510.38;;;21.36;49.00
46710;BME280;32442;51.514;-0.178;2023-04-28T01:51:33;100503.44;;;21.34;49.08
46710;BME280;32442;51.514;-0.178;2023-04-28T01:54:00;100502.09;;;21.31;49.25
46710;BME280;32442;51.514;-0.178;2023-04-28T01:56:27;100502.75;;;21.28;49.15
46710;BME280;32442;51.514;-0.178;2023-04-28T01:58:54;100504.72;;;21.27;49.11
46710;BME280;32442;51.514;-0.178;2023-04-28T02:01:21;100507.53;;;21.27;49.26
46710;BME280;32442;51.514;-0.178;2023-04-28T02:03:48;100505.88;;;21.26;49.43
46710;BME280;32442;51.514;-0.178;2023-04-28T02:06:16;100509.50;;;21.27;49.38
46710;BME280;32442;51.514;-0.178;2023-04-28T02:08:43;100507.34;;;21.24;49.01
46710;BME280;32442;51.514;-0.178;2023-04-28T02:11:10;100499.59;;;21.21;49.28
46710;BME280;32442;51.514;-0.178;2023-04-28T02:13:37;100504.03;;;21.22;49.04
46710;BME280;32442;51.514;-0.178;2023-04-28T02:16:04;100505.38;;;21.24;49.26
46710;BME280;32442;51.514;-0.178;2023-04-28T02:18:32;100514.13;;;21.23;48.98
46710;BME280;32442;51.514;-0.178;2023-04-28T02:21:06;100511.63;;;21.21;49.30
46710;BME280;32442;51.514;-0.178;2023-04-28T02:23:33;100508.03;;;21.21;49.16
46710;BME280;32442;51.514;-0.178;2023-04-28T02:26:01;100505.84;;;21.18;49.41
46710;BME280;32442;51.514;-0.178;2023-04-28T02:28:29;100513.44;;;21.17;49.42
46710;BME280;32442;51.514;-0.178;2023-04-28T02:33:34;100515.53;;;21.12;49.42
46710;BME280;32442;51.514;-0.178;2023-04-28T02:36:02;100511.06;;;21.11;49.53
46710;BME280;32442;51.514;-0.178;2023-04-28T02:38:29;100521.47;;;21.10;49.54
46710;BME280;32442;51.514;-0.178;2023-04-28T02:40:57;100520.66;;;21.10;49.81
46710;BME280;32442;51.514;-0.178;2023-04-28T02:43:25;100518.50;;;21.07;49.62
46710;BME280;32442;51.514;-0.178;2023-04-28T02:45:52;100520.47;;;21.06;49.35
46710;BME280;32442;51.514;-0.178;2023-04-28T02:48:19;100516.31;;;21.04;49.70
46710;BME280;32442;51.514;-0.178;2023-04-28T02:50:46;100518.28;;;21.03;49.51
46710;BME280;32442;51.514;-0.178;2023-04-28T02:53:13;100509.38;;;21.01;49.69
46710;BME280;32442;51.514;-0.178;2023-04-28T02:55:40;100513.84;;;21.02;49.51
46710;BME280;32442;51.514;-0.178;2023-04-28T02:58:07;100505.72;;;21.01;49.96
46710;BME280;32442;51.514;-0.178;2023-04-28T03:00:34;100510.03;;;20.98;49.56
46710;BME280;32442;51.514;-0.178;2023-04-28T03:03:01;100512.00;;;20.98;49.63
46710;BME280;32442;51.514;-0.178;2023-04-28T03:05:28;100508.00;;;20.99;49.82
46710;BME280;32442;51.514;-0.178;2023-04-28T03:07:55;100513.78;;;20.94;50.08
46710;BME280;32442;51.514;-0.178;2023-04-28T03:10:23;100504.19;;;20.95;49.78
46710;BME280;32442;51.514;-0.178;2023-04-28T03:12:50;100511.28;;;20.92;50.05
46710;BME280;32442;51.514;-0.178;2023-04-28T03:15:17;100507.97;;;20.90;50.38
46710;BME280;32442;51.514;-0.178;2023-04-28T03:17:44;100505.50;;;20.89;50.33
46710;BME280;32442;51.514;-0.178;2023-04-28T03:20:13;100512.25;;;20.88;50.47
46710;BME280;32442;51.514;-0.178;2023-04-28T03:22:40;100516.22;;;20.86;50.53
46710;BME280;32442;51.514;-0.178;2023-04-28T03:25:08;100515.38;;;20.86;50.34
46710;BME280;32442;51.514;-0.178;2023-04-28T03:27:36;100519.34;;;20.85;50.79
46710;BME280;32442;51.514;-0.178;2023-04-28T03:30:03;100516.03;;;20.83;50.65
46710;BME280;32442;51.514;-0.178;2023-04-28T03:32:30;100508.75;;;20.82;50.43
46710;BME280;32442;51.514;-0.178;2023-04-28T03:34:57;100504.63;;;20.79;50.89
46710;BME280;32442;51.514;-0.178;2023-04-28T03:37:24;100508.56;;;20.78;50.73
46710;BME280;32442;51.514;-0.178;2023-04-28T03:39:51;100519.81;;;20.78;50.92
46710;BME280;32442;51.514;-0.178;2023-04-28T03:42:18;100512.84;;;20.76;50.93
46710;BME280;32442;51.514;-0.178;2023-04-28T03:44:45;100514.50;;;20.77;50.96
46710;BME280;32442;51.514;-0.178;2023-04-28T03:47:12;100517.66;;;20.75;50.90
46710;BME280;32442;51.514;-0.178;2023-04-28T03:49:42;100519.63;;;20.75;51.23
46710;BME280;32442;51.514;-0.178;2023-04-28T03:52:09;100518.78;;;20.74;51.22
46710;BME280;32442;51.514;-0.178;2023-04-28T03:54:36;100517.13;;;20.73;51.39
46710;BME280;32442;51.514;-0.178;2023-04-28T03:57:03;100515.81;;;20.71;51.39
46710;BME280;32442;51.514;-0.178;2023-04-28T03:59:30;100516.63;;;20.71;51.08
46710;BME280;32442;51.514;-0.178;2023-04-28T04:01:57;100511.31;;;20.70;51.25
46710;BME280;32442;51.514;-0.178;2023-04-28T04:04:24;100510.50;;;20.69;50.99
46710;BME280;32442;51.514;-0.178;2023-04-28T04:06:52;100517.25;;;20.68;51.58
46710;BME280;32442;51.514;-0.178;2023-04-28T04:09:19;100512.78;;;20.67;51.60
46710;BME280;32442;51.514;-0.178;2023-04-28T04:11:46;100518.41;;;20.67;51.46
46710;BME280;32442;51.514;-0.178;2023-04-28T04:14:13;100529.13;;;20.65;51.56
46710;BME280;32442;51.514;-0.178;2023-04-28T04:16:40;100522.69;;;20.65;51.71
46710;BME280;32442;51.514;-0.178;2023-04-28T04:19:07;100530.28;;;20.64;51.41
46710;BME280;32442;51.514;-0.178;2023-04-28T04:21:34;100531.41;;;20.63;51.40
46710;BME280;32442;51.514;-0.178;2023-04-28T04:24:01;100538.19;;;20.62;51.36
46710;BME280;32442;51.514;-0.178;2023-04-28T04:26:31;100529.56;;;20.59;51.56
46710;BME280;32442;51.514;-0.178;2023-04-28T04:28:58;100537.16;;;20.58;51.45
46710;BME280;32442;51.514;-0.178;2023-04-28T04:31:25;100534.34;;;20.58;51.54
46710;BME280;32442;51.514;-0.178;2023-04-28T04:33:52;100545.56;;;20.58;51.57
46710;BME280;32442;51.514;-0.178;2023-04-28T04:36:19;100542.28;;;20.56;51.67
46710;BME280;32442;51.514;-0.178;2023-04-28T04:38:46;100543.09;;;20.57;51.67
46710;BME280;32442;51.514;-0.178;2023-04-28T04:41:14;100543.41;;;20.55;51.84
46710;BME280;32442;51.514;-0.178;2023-04-28T04:43:43;100548.19;;;20.55;51.90
46710;BME280;32442;51.514;-0.178;2023-04-28T04:46:10;100552.16;;;20.54;51.54
46710;BME280;32442;51.514;-0.178;2023-04-28T04:48:37;100548.84;;;20.52;52.04
46710;BME280;32442;51.514;-0.178;2023-04-28T04:51:04;100552.47;;;20.52;51.73
46710;BME280;32442;51.514;-0.178;2023-04-28T04:53:31;100559.22;;;20.51;52.01
46710;BME280;32442;51.514;-0.178;2023-04-28T04:55:58;100551.94;;;20.50;51.79
46710;BME280;32442;51.514;-0.178;2023-04-28T04:58:26;100556.25;;;20.48;52.05
46710;BME280;32442;51.514;-0.178;2023-04-28T05:00:53;100557.38;;;20.47;51.67
46710;BME280;32442;51.514;-0.178;2023-04-28T05:03:23;100555.72;;;20.46;51.79
46710;BME280;32442;51.514;-0.178;2023-04-28T05:05:50;100562.47;;;20.45;51.86
46710;BME280;32442;51.514;-0.178;2023-04-28T05:08:17;100553.25;;;20.44;51.98
46710;BME280;32442;51.514;-0.178;2023-04-28T05:10:44;100560.84;;;20.44;52.06
46710;BME280;32442;51.514;-0.178;2023-04-28T05:13:11;100560.84;;;20.44;52.17
46710;BME280;32442;51.514;-0.178;2023-04-28T05:15:38;100559.16;;;20.42;52.04
46710;BME280;32442;51.514;-0.178;2023-04-28T05:18:05;100563.53;;;20.49;52.07
46710;BME280;32442;51.514;-0.178;2023-04-28T05:20:36;100569.50;;;20.56;52.27
46710;BME280;32442;51.514;-0.178;2023-04-28T05:23:04;100571.38;;;20.60;52.28
46710;BME280;32442;51.514;-0.178;2023-04-28T05:25:34;100575.72;;;20.66;52.01
46710;BME280;32442;51.514;-0.178;2023-04-28T05:28:01;100578.41;;;20.71;52.15
46710;BME280;32442;51.514;-0.178;2023-04-28T05:30:33;100583.03;;;20.76;52.27
46710;BME280;32442;51.514;-0.178;2023-04-28T05:33:00;100583.72;;;20.81;52.48
46710;BME280;32442;51.514;-0.178;2023-04-28T05:35:27;100583.13;;;20.84;52.35
46710;BME280;32442;51.514;-0.178;2023-04-28T05:37:54;100580.16;;;20.90;51.94
46710;BME280;32442;51.514;-0.178;2023-04-28T05:40:21;100580.84;;;20.95;52.37
46710;BME280;32442;51.514;-0.178;2023-04-28T05:42:48;100591.97;;;21.00;51.83
46710;BME280;32442;51.514;-0.178;2023-04-28T05:45:16;100585.69;;;21.03;52.18
46710;BME280;32442;51.514;-0.178;2023-04-28T05:47:43;100578.63;;;21.06;52.16
46710;BME280;32442;51.514;-0.178;2023-04-28T05:50:10;100592.84;;;21.09;51.28
46710;BME280;32442;51.514;-0.178;2023-04-28T05:52:37;100592.19;;;21.12;51.75
46710;BME280;32442;51.514;-0.178;2023-04-28T05:55:04;100597.22;;;21.15;51.59
46710;BME280;32442;51.514;-0.178;2023-04-28T05:57:31;100597.41;;;21.19;51.19
46710;BME280;32442;51.514;-0.178;2023-04-28T06:00:14;100600.75;;;21.21;51.24
46710;BME280;32442;51.514;-0.178;2023-04-28T06:02:42;100599.25;;;21.23;50.88
46710;BME280;32442;51.514;-0.178;2023-04-28T06:05:09;100603.38;;;21.26;51.07
46710;BME280;32442;51.514;-0.178;2023-04-28T06:07:37;100603.91;;;21.28;50.92
46710;BME280;32442;51.514;-0.178;2023-04-28T06:10:04;100604.09;;;21.32;50.73
46710;BME280;32442;51.514;-0.178;2023-04-28T06:12:32;100609.72;;;21.32;50.58
46710;BME280;32442;51.514;-0.178;2023-04-28T06:14:59;100611.06;;;21.34;50.57
46710;BME280;32442;51.514;-0.178;2023-04-28T06:17:26;100620.81;;;21.37;50.85
46710;BME280;32442;51.514;-0.178;2023-04-28T06:19:53;100616.34;;;21.36;51.07
46710;BME280;32442;51.514;-0.178;2023-04-28T06:22:21;100617.47;;;21.12;51.93
46710;BME280;32442;51.514;-0.178;2023-04-28T06:24:49;100628.00;;;21.20;51.46
46710;BME280;32442;51.514;-0.178;2023-04-28T06:27:15;100629.00;;;21.24;51.06
46710;BME280;32442;51.514;-0.178;2023-04-28T06:29:43;100615.16;;;21.28;51.22
46710;BME280;32442;51.514;-0.178;2023-04-28T06:32:10;100629.72;;;21.30;50.94
46710;BME280;32442;51.514;-0.178;2023-04-28T06:34:37;100629.72;;;21.30;50.43
46710;BME280;32442;51.514;-0.178;2023-04-28T06:37:04;100636.97;;;21.31;50.75
46710;BME280;32442;51.514;-0.178;2023-04-28T06:39:31;100635.00;;;21.32;50.34
46710;BME280;32442;51.514;-0.178;2023-04-28T06:41:59;100645.41;;;21.31;50.13
46710;BME280;32442;51.514;-0.178;2023-04-28T06:44:28;100640.97;;;21.30;50.28
46710;BME280;32442;51.514;-0.178;2023-04-28T06:46:55;100640.63;;;21.32;50.41
46710;BME280;32442;51.514;-0.178;2023-04-28T06:49:24;100648.56;;;21.29;49.94
46710;BME280;32442;51.514;-0.178;2023-04-28T06:51:51;100646.84;;;21.20;50.65
46710;BME280;32442;51.514;-0.178;2023-04-28T06:54:19;100646.97;;;21.15;50.79
46710;BME280;32442;51.514;-0.178;2023-04-28T06:56:48;100649.47;;;21.16;50.61
46710;BME280;32442;51.514;-0.178;2023-04-28T06:59:15;100653.06;;;21.17;50.75
46710;BME280;32442;51.514;-0.178;2023-04-28T07:01:42;100649.47;;;21.16;50.66
46710;BME280;32442;51.514;-0.178;2023-04-28T07:04:09;100653.41;;;21.15;50.22
46710;BME280;32442;51.514;-0.178;2023-04-28T07:06:40;100656.53;;;21.14;50.31
46710;BME280;32442;51.514;-0.178;2023-04-28T07:09:07;100661.63;;;21.12;50.48
46710;BME280;32442;51.514;-0.178;2023-04-28T07:11:34;100655.19;;;21.11;50.22
46710;BME280;32442;51.514;-0.178;2023-04-28T07:14:03;100656.63;;;21.09;50.42
46710;BME280;32442;51.514;-0.178;2023-04-28T07:16:30;100659.78;;;21.07;50.45
46710;BME280;32442;51.514;-0.178;2023-04-28T07:18:58;100656.63;;;21.09;49.91
46710;BME280;32442;51.514;-0.178;2023-04-28T07:21:25;100668.69;;;21.09;50.42
46710;BME280;32442;51.514;-0.178;2023-04-28T07:23:55;100672.75;;;21.17;50.01
46710;BME280;32442;51.514;-0.178;2023-04-28T07:26:22;100670.75;;;21.17;50.48
46710;BME280;32442;51.514;-0.178;2023-04-28T07:28:52;100665.78;;;21.14;50.38
46710;BME280;32442;51.514;-0.178;2023-04-28T07:31:20;100678.19;;;21.13;50.66
46710;BME280;32442;51.514;-0.178;2023-04-28T07:33:47;100681.41;;;21.07;50.26
46710;BME280;32442;51.514;-0.178;2023-04-28T07:36:14;100673.94;;;21.02;50.37
46710;BME280;32442;51.514;-0.178;2023-04-28T07:38:42;100683.19;;;21.03;50.17
46710;BME280;32442;51.514;-0.178;2023-04-28T07:41:09;100694.56;;;20.98;50.23
46710;BME280;32442;51.514;-0.178;2023-04-28T07:43:37;100692.88;;;20.97;50.16
46710;BME280;32442;51.514;-0.178;2023-04-28T07:46:04;100688.22;;;20.92;50.08
46710;BME280;32442;51.514;-0.178;2023-04-28T07:48:31;100692.19;;;20.91;50.04
46710;BME280;32442;51.514;-0.178;2023-04-28T07:50:58;100704.06;;;20.88;50.22
46710;BME280;32442;51.514;-0.178;2023-04-28T07:53:25;100696.97;;;20.91;50.19
46710;BME280;32442;51.514;-0.178;2023-04-28T07:55:56;100697.72;;;20.82;50.51
46710;BME280;32442;51.514;-0.178;2023-04-28T07:58:25;100709.16;;;20.86;50.11
46710;BME280;32442;51.514;-0.178;2023-04-28T08:00:53;100709.47;;;20.84;50.41
46710;BME280;32442;51.514;-0.178;2023-04-28T08:03:22;100707.81;;;20.83;50.39
46710;BME280;32442;51.514;-0.178;2023-04-28T08:05:51;100709.25;;;20.81;50.49
46710;BME280;32442;51.514;-0.178;2023-04-28T08:08:23;100710.63;;;20.83;50.01
46710;BME280;32442;51.514;-0.178;2023-04-28T08:10:50;100714.88;;;20.81;50.22
46710;BME280;32442;51.514;-0.178;2023-04-28T08:13:18;100720.81;;;20.79;50.56
46710;BME280;32442;51.514;-0.178;2023-04-28T08:15:46;100712.72;;;20.78;50.09
46710;BME280;32442;51.514;-0.178;2023-04-28T08:18:14;100714.69;;;20.77;50.29
46710;BME280;32442;51.514;-0.178;2023-04-28T08:20:42;100720.09;;;20.74;50.47
46710;BME280;32442;51.514;-0.178;2023-04-28T08:23:09;100722.91;;;20.74;50.07
46710;BME280;32442;51.514;-0.178;2023-04-28T08:25:36;100721.25;;;20.73;50.04
46710;BME280;32442;51.514;-0.178;2023-04-28T08:28:04;100723.22;;;20.72;50.48
46710;BME280;32442;51.514;-0.178;2023-04-28T08:30:32;100716.28;;;20.70;50.27
46710;BME280;32442;51.514;-0.178;2023-04-28T08:33:00;100731.75;;;20.67;50.38
46710;BME280;32442;51.514;-0.178;2023-04-28T08:35:27;100730.13;;;20.66;50.13
46710;BME280;32442;51.514;-0.178;2023-04-28T08:37:55;100727.81;;;20.68;49.98
46710;BME280;32442;51.514;-0.178;2023-04-28T08:40:23;100729.28;;;20.66;49.93
46710;BME280;32442;51.514;-0.178;2023-04-28T08:42:51;100733.41;;;20.68;50.13
46710;BME280;32442;51.514;-0.178;2023-04-28T08:45:18;100732.09;;;20.66;50.07
46710;BME280;32442;51.514;-0.178;2023-04-28T08:47:46;100725.00;;;20.68;49.60
46710;BME280;32442;51.514;-0.178;2023-04-28T08:50:15;100738.19;;;20.68;49.52
46710;BME280;32442;51.514;-0.178;2023-04-28T08:52:49;100746.63;;;20.68;49.66
46710;BME280;32442;51.514;-0.178;2023-04-28T08:55:18;100743.63;;;20.64;49.84
46710;BME280;32442;51.514;-0.178;2023-04-28T08:57:48;100738.00;;;20.64;50.19
46710;BME280;32442;51.514;-0.178;2023-04-28T09:00:17;100742.78;;;20.64;49.55
46710;BME280;32442;51.514;-0.178;2023-04-28T09:02:44;100741.13;;;20.63;49.87
46710;BME280;32442;51.514;-0.178;2023-04-28T09:05:13;100739.47;;;20.62;49.71
46710;BME280;32442;51.514;-0.178;2023-04-28T09:07:44;100745.41;;;20.60;49.92
46710;BME280;32442;51.514;-0.178;2023-04-28T09:10:26;100740.91;;;20.59;49.51
46710;BME280;32442;51.514;-0.178;2023-04-28T09:12:54;100750.81;;;20.57;49.52
46710;BME280;32442;51.514;-0.178;2023-04-28T09:15:26;100758.41;;;20.56;50.03
46710;BME280;32442;51.514;-0.178;2023-04-28T09:17:55;100746.63;;;20.54;50.02
46710;BME280;32442;51.514;-0.178;2023-04-28T09:20:24;100759.03;;;20.53;49.81
46710;BME280;32442;51.514;-0.178;2023-04-28T09:22:51;100758.50;;;20.51;50.09
46710;BME280;32442;51.514;-0.178;2023-04-28T09:25:20;100761.63;;;20.50;50.15
46710;BME280;32442;51.514;-0.178;2023-04-28T09:27:49;100756.53;;;20.52;50.04
46710;BME280;32442;51.514;-0.178;2023-04-28T09:30:16;100757.66;;;20.51;49.87
46710;BME280;32442;51.514;-0.178;2023-04-28T09:32:44;100767.47;;;20.53;50.03
46710;BME280;32442;51.514;-0.178;2023-04-28T09:35:11;100766.28;;;20.54;49.97
46710;BME280;32442;51.514;-0.178;2023-04-28T09:37:39;100759.53;;;20.55;49.46
46710;BME280;32442;51.514;-0.178;2023-04-28T09:40:07;100770.25;;;20.53;49.57
46710;BME280;32442;51.514;-0.178;2023-04-28T09:42:40;100767.75;;;20.52;49.81
46710;BME280;32442;51.514;-0.178;2023-04-28T09:45:09;100767.22;;;20.50;49.84
46710;BME280;32442;51.514;-0.178;2023-04-28T09:50:07;100766.91;;;20.51;49.52
46710;BME280;32442;51.514;-0.178;2023-04-28T09:52:37;100776.19;;;20.52;49.80
46710;BME280;32442;51.514;-0.178;2023-04-28T09:55:05;100770.38;;;20.48;49.86
46710;BME280;32442;51.514;-0.178;2023-04-28T09:57:35;100780.22;;;20.46;49.85
46710;BME280;32442;51.514;-0.178;2023-04-28T10:00:05;100778.25;;;20.46;49.77
46710;BME280;32442;51.514;-0.178;2023-04-28T10:02:33;100780.22;;;20.46;49.80
46710;BME280;32442;51.514;-0.178;2023-04-28T10:05:03;100784.16;;;20.45;49.87
46710;BME280;32442;51.514;-0.178;2023-04-28T10:07:35;100783.38;;;20.44;49.49
46710;BME280;32442;51.514;-0.178;2023-04-28T10:10:04;100781.69;;;20.43;49.87
46710;BME280;32442;51.514;-0.178;2023-04-28T10:12:32;100787.59;;;20.41;49.74
46710;BME280;32442;51.514;-0.178;2023-04-28T10:15:00;100798.00;;;20.41;49.78
46710;BME280;32442;51.514;-0.178;2023-04-28T10:17:30;100798.31;;;20.39;49.66
46710;BME280;32442;51.514;-0.178;2023-04-28T10:20:00;100810.69;;;20.38;49.71
46710;BME280;32442;51.514;-0.178;2023-04-28T10:25:11;100809.84;;;20.38;49.52
46710;BME280;32442;51.514;-0.178;2023-04-28T10:27:48;100817.44;;;20.37;49.50
46710;BME280;32442;51.514;-0.178;2023-04-28T10:30:20;100816.59;;;20.37;49.98
46710;BME280;32442;51.514;-0.178;2023-04-28T10:38:04;100831.25;;;20.34;49.97
46710;BME280;32442;51.514;-0.178;2023-04-28T10:43:01;100832.69;;;20.31;50.08
46710;BME280;32442;51.514;-0.178;2023-04-28T10:48:07;100844.25;;;20.30;50.10
46710;BME280;32442;51.514;-0.178;2023-04-28T10:50:34;100847.06;;;20.30;49.87
46710;BME280;32442;51.514;-0.178;2023-04-28T10:53:04;100847.06;;;20.30;49.75
46710;BME280;32442;51.514;-0.178;2023-04-28T10:55:32;100847.06;;;20.30;49.83
46710;BME280;32442;51.514;-0.178;2023-04-28T11:00:40;100861.34;;;20.28;50.08
46710;BME280;32442;51.514;-0.178;2023-04-28T11:03:07;100852.09;;;20.28;50.16
46710;BME280;32442;51.514;-0.178;2023-04-28T11:05:35;100853.22;;;20.27;50.16
46710;BME280;32442;51.514;-0.178;2023-04-28T11:13:27;100854.59;;;20.29;50.17
46710;BME280;32442;51.514;-0.178;2023-04-28T11:16:02;100863.91;;;20.30;49.88
46710;BME280;32442;51.514;-0.178;2023-04-28T11:18:37;100852.09;;;20.28;49.84
46710;BME280;32442;51.514;-0.178;2023-04-28T11:21:14;100857.50;;;20.24;49.79
46710;BME280;32442;51.514;-0.178;2023-04-28T11:23:43;100865.09;;;20.24;50.04
46710;BME280;32442;51.514;-0.178;2023-04-28T11:26:10;100861.16;;;20.25;49.68
46710;BME280;32442;51.514;-0.178;2023-04-28T11:28:46;100860.59;;;20.23;49.58
46710;BME280;32442;51.514;-0.178;2023-04-28T11:31:15;100869.03;;;20.23;49.77
46710;BME280;32442;51.514;-0.178;2023-04-28T11:33:45;100874.13;;;20.21;50.01
46710;BME280;32442;51.514;-0.178;2023-04-28T11:38:51;100888.44;;;20.19;49.91
46710;BME280;32442;51.514;-0.178;2023-04-28T11:41:18;100872.47;;;20.20;49.77
46710;BME280;32442;51.514;-0.178;2023-04-28T11:43:45;100878.38;;;20.18;49.70
46710;BME280;32442;51.514;-0.178;2023-04-28T11:46:16;100884.81;;;20.19;49.73
46710;BME280;32442;51.514;-0.178;2023-04-28T11:48:44;100898.84;;;20.19;49.72
46710;BME280;32442;51.514;-0.178;2023-04-28T11:53:49;100882.22;;;20.22;49.65
46710;BME280;32442;51.514;-0.178;2023-04-28T11:56:16;100892.59;;;20.22;49.82
46710;BME280;32442;51.514;-0.178;2023-04-28T11:58:44;100887.53;;;20.24;49.78
46710;BME280;32442;51.514;-0.178;2023-04-28T12:01:12;100893.13;;;20.24;49.50
46710;BME280;32442;51.514;-0.178;2023-04-28T12:03:42;100893.13;;;20.24;49.87
46710;BME280;32442;51.514;-0.178;2023-04-28T12:06:10;100882.22;;;20.22;49.49
46710;BME280;32442;51.514;-0.178;2023-04-28T12:08:37;100893.44;;;20.22;49.83
46710;BME280;32442;51.514;-0.178;2023-04-28T12:11:06;100893.44;;;20.22;49.86
46710;BME280;32442;51.514;-0.178;2023-04-28T12:13:35;100887.81;;;20.22;49.85
46710;BME280;32442;51.514;-0.178;2023-04-28T12:16:05;100898.75;;;20.24;49.38
46710;BME280;32442;51.514;-0.178;2023-04-28T12:18:34;100892.00;;;20.25;49.88
46710;BME280;32442;51.514;-0.178;2023-04-28T12:21:02;100897.63;;;20.25;49.84
46710;BME280;32442;51.514;-0.178;2023-04-28T12:23:30;100900.72;;;20.23;49.54
46710;BME280;32442;51.514;-0.178;2023-04-28T12:25:59;100901.56;;;20.24;49.94
46710;BME280;32442;51.514;-0.178;2023-04-28T12:31:04;100908.63;;;20.21;49.89
46710;BME280;32442;51.514;-0.178;2023-04-28T12:33:33;100907.47;;;20.22;49.47
46710;BME280;32442;51.514;-0.178;2023-04-28T12:36:04;100913.91;;;20.23;49.47
46710;BME280;32442;51.514;-0.178;2023-04-28T12:38:33;100920.66;;;20.22;49.80
46710;BME280;32442;51.514;-0.178;2023-04-28T12:41:00;100916.22;;;20.21;49.67
46710;BME280;32442;51.514;-0.178;2023-04-28T12:43:28;100915.03;;;20.22;49.49
46710;BME280;32442;51.514;-0.178;2023-04-28T12:45:55;100928.56;;;20.20;49.82
46710;BME280;32442;51.514;-0.178;2023-04-28T12:48:23;100934.16;;;20.20;49.41
46710;BME280;32442;51.514;-0.178;2023-04-28T12:50:51;100940.09;;;20.18;49.70
46710;BME280;32442;51.514;-0.178;2023-04-28T12:53:18;100944.00;;;20.17;49.82
46710;BME280;32442;51.514;-0.178;2023-04-28T12:55:46;100948.00;;;20.16;49.78
46710;BME280;32442;51.514;-0.178;2023-04-28T12:58:13;100943.22;;;20.17;49.25
46710;BME280;32442;51.514;-0.178;2023-04-28T13:00:41;100940.91;;;20.19;49.55
46710;BME280;32442;51.514;-0.178;2023-04-28T13:03:09;100945.59;;;20.23;49.24
46710;BME280;32442;51.514;-0.178;2023-04-28T13:05:37;100939.16;;;20.23;49.41
46710;BME280;32442;51.514;-0.178;2023-04-28T13:08:04;100944.19;;;20.26;49.00
46710;BME280;32442;51.514;-0.178;2023-04-28T13:10:32;100942.19;;;20.26;49.46
46710;BME280;32442;51.514;-0.178;2023-04-28T13:12:59;100946.97;;;20.26;49.13
46710;BME280;32442;51.514;-0.178;2023-04-28T13:15:29;100951.44;;;20.27;48.92
46710;BME280;32442;51.514;-0.178;2023-04-28T13:18:03;100954.78;;;20.29;48.90